createdAt,value
2018-07-15T00:00:03.299Z,11.50
2018-07-15T00:02:32.473Z,9.87
2018-07-15T00:05:01.378Z,8.90
2018-07-15T00:07:30.395Z,9.13
2018-07-15T00:09:59.622Z,8.77
2018-07-15T00:12:28.789Z,9.10
2018-07-15T00:14:57.781Z,9.97
2018-07-15T00:17:26.977Z,10.37
2018-07-15T00:19:56.154Z,10.20
2018-07-15T00:22:25.597Z,10.53
2018-07-15T00:24:54.846Z,10.77
2018-07-15T00:27:24.735Z,9.97
2018-07-15T00:29:54.270Z,11.73
2018-07-15T00:32:23.366Z,10.30
2018-07-15T00:34:52.394Z,11.87
2018-07-15T00:37:21.461Z,11.37
2018-07-15T00:39:50.763Z,11.30
2018-07-15T00:42:19.890Z,12.00
2018-07-15T00:44:49.167Z,13.13
2018-07-15T00:47:18.538Z,12.67
2018-07-15T00:49:47.663Z,10.47
2018-07-15T00:52:16.857Z,10.03
2018-07-15T00:54:46.065Z,9.60
2018-07-15T00:57:15.253Z,11.37
2018-07-15T00:59:44.633Z,10.57
2018-07-15T01:02:13.838Z,10.30
2018-07-15T01:04:42.925Z,13.40
2018-07-15T01:07:12.061Z,11.03
2018-07-15T01:09:41.363Z,10.70
2018-07-15T01:12:10.590Z,12.67
2018-07-15T01:14:39.737Z,12.33
2018-07-15T01:17:08.941Z,15.03
2018-07-15T01:19:38.228Z,14.97
2018-07-15T01:22:07.333Z,14.60
2018-07-15T01:24:36.599Z,10.40
2018-07-15T01:27:05.899Z,11.17
2018-07-15T01:29:35.117Z,11.60
2018-07-15T01:32:04.292Z,12.07
2018-07-15T01:34:33.514Z,11.37
2018-07-15T01:37:02.609Z,10.07
2018-07-15T01:39:31.938Z,18.83
2018-07-15T01:42:01.167Z,12.77
2018-07-15T01:44:30.364Z,11.57
2018-07-15T01:46:59.537Z,12.23
2018-07-15T01:49:28.730Z,11.33
2018-07-15T01:51:57.961Z,10.80
2018-07-15T01:54:26.682Z,11.60
2018-07-15T01:56:55.405Z,10.30
2018-07-15T01:59:24.146Z,12.20
2018-07-15T02:01:52.866Z,12.53
2018-07-15T02:04:21.618Z,12.00
2018-07-15T02:06:50.334Z,13.37
2018-07-15T02:09:19.118Z,11.60
2018-07-15T02:11:47.944Z,12.60
2018-07-15T02:14:16.704Z,12.20
2018-07-15T02:16:45.471Z,11.40
2018-07-15T02:19:14.245Z,11.17
2018-07-15T02:21:43.003Z,12.03
2018-07-15T02:24:11.751Z,11.63
2018-07-15T02:26:40.477Z,12.20
2018-07-15T02:29:09.223Z,13.23
2018-07-15T02:31:38.017Z,14.70
2018-07-15T02:34:08.601Z,11.70
2018-07-15T02:36:37.405Z,11.03
2018-07-15T02:39:07.924Z,11.60
2018-07-15T02:41:36.772Z,10.23
2018-07-15T02:44:05.978Z,12.47
2018-07-15T02:46:34.831Z,12.47
2018-07-15T02:49:03.546Z,13.40
2018-07-15T02:51:32.238Z,12.40
2018-07-15T02:54:00.948Z,12.93
2018-07-15T02:56:29.650Z,14.03
2018-07-15T02:58:58.396Z,13.30
2018-07-15T03:01:27.111Z,12.43
2018-07-15T03:03:55.831Z,12.27
2018-07-15T03:06:24.552Z,13.00
2018-07-15T03:08:53.282Z,13.47
2018-07-15T03:11:22.162Z,12.67
2018-07-15T03:13:51.027Z,12.03
2018-07-15T03:16:19.784Z,14.80
2018-07-15T03:18:48.526Z,11.87
2018-07-15T03:21:17.272Z,12.93
2018-07-15T03:23:51.602Z,10.83
2018-07-15T03:26:20.363Z,12.03
2018-07-15T03:28:49.701Z,12.73
2018-07-15T03:31:18.431Z,10.67
2018-07-15T03:33:47.128Z,11.20
2018-07-15T03:36:15.892Z,12.50
2018-07-15T03:38:44.678Z,11.13
2018-07-15T03:41:13.406Z,11.67
2018-07-15T03:43:42.228Z,11.53
2018-07-15T03:46:10.964Z,10.00
2018-07-15T03:48:39.681Z,8.13
2018-07-15T03:51:08.481Z,9.20
2018-07-15T03:53:37.170Z,8.63
2018-07-15T03:56:05.893Z,6.93
2018-07-15T03:58:34.633Z,6.27
2018-07-15T04:01:03.400Z,7.10
2018-07-15T04:03:32.116Z,6.63
2018-07-15T04:06:00.837Z,6.73
2018-07-15T04:08:29.717Z,7.20
2018-07-15T04:10:58.528Z,6.97
2018-07-15T04:13:27.418Z,5.70
2018-07-15T04:15:56.131Z,6.20
2018-07-15T04:18:24.821Z,5.50
2018-07-15T04:20:53.589Z,4.53
2018-07-15T04:23:22.414Z,5.60
2018-07-15T04:25:51.171Z,5.53
2018-07-15T04:28:19.941Z,6.50
2018-07-15T04:30:48.658Z,4.50
2018-07-15T04:33:17.375Z,6.13
2018-07-15T04:35:46.102Z,6.53
2018-07-15T04:38:14.850Z,8.33
2018-07-15T04:40:43.563Z,7.63
2018-07-15T04:43:12.271Z,7.83
2018-07-15T04:45:40.971Z,7.13
2018-07-15T04:48:09.736Z,6.93
2018-07-15T04:50:38.451Z,7.07
2018-07-15T04:53:07.173Z,8.30
2018-07-15T04:55:35.975Z,8.13
2018-07-15T04:58:04.714Z,7.20
2018-07-15T05:00:33.436Z,7.47
2018-07-15T05:03:02.213Z,5.63
2018-07-15T05:05:30.916Z,4.90
2018-07-15T05:07:59.613Z,5.33
2018-07-15T05:10:28.305Z,5.07
2018-07-15T05:12:57.017Z,4.90
2018-07-15T05:15:25.832Z,5.60
2018-07-15T05:17:54.608Z,4.40
2018-07-15T05:20:23.332Z,5.83
2018-07-15T05:22:52.061Z,5.23
2018-07-15T05:25:20.764Z,4.80
2018-07-15T05:27:49.494Z,4.87
2018-07-15T05:30:18.209Z,5.73
2018-07-15T05:32:46.937Z,5.67
2018-07-15T05:35:15.643Z,5.43
2018-07-15T05:37:44.332Z,5.30
2018-07-15T05:40:13.096Z,4.10
2018-07-15T05:42:41.802Z,3.80
2018-07-15T05:45:10.533Z,4.37
2018-07-15T05:47:39.296Z,4.00
2018-07-15T05:50:08.083Z,3.77
2018-07-15T05:52:36.851Z,3.90
2018-07-15T05:55:05.738Z,3.30
2018-07-15T05:57:34.450Z,3.05
2018-07-15T06:00:03.196Z,3.27
2018-07-15T06:02:31.931Z,3.10
2018-07-15T06:05:00.699Z,2.83
2018-07-15T06:07:29.457Z,2.83
2018-07-15T06:09:58.370Z,3.22
2018-07-15T06:12:27.145Z,2.92
2018-07-15T06:14:55.845Z,3.35
2018-07-15T06:17:24.593Z,3.27
2018-07-15T06:19:53.297Z,3.45
2018-07-15T06:22:21.987Z,7.50
2018-07-15T06:24:50.695Z,3.27
2018-07-15T06:27:19.469Z,3.15
2018-07-15T06:29:48.148Z,3.72
2018-07-15T06:32:16.846Z,3.40
2018-07-15T06:34:45.593Z,2.72
2018-07-15T06:37:14.286Z,3.70
2018-07-15T06:39:42.992Z,3.50
2018-07-15T06:42:11.901Z,3.03
2018-07-15T06:44:40.586Z,4.05
2018-07-15T06:47:09.341Z,3.57
2018-07-15T06:49:38.032Z,3.22
2018-07-15T06:52:06.781Z,2.62
2018-07-15T06:54:35.482Z,3.10
2018-07-15T06:57:04.177Z,2.72
2018-07-15T06:59:32.882Z,3.92
2018-07-15T07:02:01.618Z,3.42
2018-07-15T07:04:30.562Z,3.27
2018-07-15T07:06:59.299Z,4.10
2018-07-15T07:09:27.985Z,3.33
2018-07-15T07:11:56.676Z,2.30
2018-07-15T07:14:25.368Z,2.40
2018-07-15T07:16:54.053Z,3.27
2018-07-15T07:19:22.813Z,2.80
2018-07-15T07:21:51.496Z,3.00
2018-07-15T07:24:20.333Z,2.87
2018-07-15T07:26:49.056Z,2.80
2018-07-15T07:29:17.765Z,2.70
2018-07-15T07:31:47.457Z,3.13
2018-07-15T07:34:16.148Z,2.90
2018-07-15T07:36:44.941Z,3.00
2018-07-15T07:39:13.681Z,3.25
2018-07-15T07:41:42.397Z,3.10
2018-07-15T07:44:11.154Z,2.80
2018-07-15T07:46:39.852Z,2.97
2018-07-15T07:49:08.543Z,2.92
2018-07-15T07:51:37.276Z,3.27
2018-07-15T07:54:06.024Z,2.55
2018-07-15T07:56:34.811Z,3.10
2018-07-15T07:59:03.545Z,3.25
2018-07-15T08:01:32.245Z,2.98
2018-07-15T08:04:00.937Z,3.20
2018-07-15T08:06:29.714Z,2.70
2018-07-15T08:08:58.393Z,2.95
2018-07-15T08:11:27.245Z,3.42
2018-07-15T08:13:55.943Z,6.20
2018-07-15T08:16:24.649Z,3.55
2018-07-15T08:18:53.389Z,2.60
2018-07-15T08:21:22.085Z,3.22
2018-07-15T08:23:50.773Z,2.55
2018-07-15T08:26:19.545Z,3.15
2018-07-15T08:28:48.260Z,3.23
2018-07-15T08:31:18.503Z,2.60
2018-07-15T08:33:47.308Z,2.83
2018-07-15T08:36:16.001Z,2.30
2018-07-15T08:38:44.679Z,2.30
2018-07-15T08:41:13.425Z,2.62
2018-07-15T08:43:42.118Z,2.80
2018-07-15T08:46:10.968Z,2.30
2018-07-15T08:48:39.695Z,2.87
2018-07-15T08:51:08.574Z,2.72
2018-07-15T08:53:37.316Z,2.57
2018-07-15T08:56:06.066Z,2.90
2018-07-15T08:58:34.781Z,2.92
2018-07-15T09:01:03.524Z,6.03
2018-07-15T09:03:32.222Z,4.83
2018-07-15T09:06:00.957Z,2.45
2018-07-15T09:08:29.653Z,2.20
2018-07-15T09:10:58.357Z,2.58
2018-07-15T09:13:27.069Z,2.23
2018-07-15T09:15:55.777Z,2.02
2018-07-15T09:18:25.042Z,2.13
2018-07-15T09:20:53.778Z,3.00
2018-07-15T09:23:22.504Z,2.60
2018-07-15T09:25:51.189Z,2.02
2018-07-15T09:28:19.885Z,2.72
2018-07-15T09:30:48.628Z,2.45
2018-07-15T09:33:17.326Z,2.62
2018-07-15T09:35:46.078Z,2.72
2018-07-15T09:38:14.870Z,2.30
2018-07-15T09:40:43.585Z,3.10
2018-07-15T09:43:12.354Z,2.73
2018-07-15T09:45:41.128Z,2.50
2018-07-15T09:48:10.701Z,2.40
2018-07-15T09:50:39.547Z,2.70
2018-07-15T09:53:08.246Z,2.40
2018-07-15T09:55:37.046Z,2.27
2018-07-15T09:58:05.834Z,2.40
2018-07-15T10:00:39.717Z,2.47
2018-07-15T10:03:08.414Z,2.90
2018-07-15T10:05:37.129Z,2.75
2018-07-15T10:08:05.886Z,2.52
2018-07-15T10:10:34.607Z,3.08
2018-07-15T10:13:03.315Z,2.50
2018-07-15T10:15:32.029Z,2.55
2018-07-15T10:18:00.753Z,2.37
2018-07-15T10:20:29.457Z,2.95
2018-07-15T10:22:58.162Z,2.75
2018-07-15T10:25:26.876Z,3.10
2018-07-15T10:27:55.577Z,2.17
2018-07-15T10:30:24.437Z,1.90
2018-07-15T10:32:53.353Z,2.90
2018-07-15T10:35:22.059Z,1.70
2018-07-15T10:37:50.828Z,2.17
2018-07-15T10:40:19.551Z,2.70
2018-07-15T10:42:48.461Z,2.75
2018-07-15T10:45:17.206Z,3.42
2018-07-15T10:47:46.066Z,2.02
2018-07-15T10:50:14.825Z,2.60
2018-07-15T10:52:43.658Z,2.27
2018-07-15T10:55:12.373Z,2.58
2018-07-15T10:57:41.075Z,1.82
2018-07-15T11:00:09.787Z,1.82
2018-07-15T11:02:38.502Z,2.05
2018-07-15T11:05:07.741Z,1.98
2018-07-15T11:07:36.442Z,2.30
2018-07-15T11:12:39.005Z,3.05
2018-07-15T11:15:07.686Z,2.25
2018-07-15T11:17:36.442Z,2.35
2018-07-15T11:20:05.251Z,2.52
2018-07-15T11:22:33.953Z,2.25
2018-07-15T11:25:02.692Z,2.83
2018-07-15T11:27:31.414Z,2.47
2018-07-15T11:30:00.323Z,2.42
2018-07-15T11:32:29.029Z,2.17
2018-07-15T11:34:57.717Z,3.10
2018-07-15T11:37:26.478Z,1.98
2018-07-15T11:39:55.197Z,2.25
2018-07-15T11:42:24.070Z,2.05
2018-07-15T11:44:52.799Z,1.82
2018-07-15T11:47:21.489Z,2.35
2018-07-15T11:49:50.214Z,2.92
2018-07-15T11:52:18.982Z,2.35
2018-07-15T11:54:47.816Z,2.05
2018-07-15T11:57:16.541Z,1.92
2018-07-15T11:59:45.235Z,2.45
2018-07-15T12:02:13.954Z,2.25
2018-07-15T12:04:42.649Z,2.10
2018-07-15T12:07:11.362Z,1.80
2018-07-15T12:09:40.062Z,2.15
2018-07-15T12:12:08.769Z,2.00
2018-07-15T12:14:37.515Z,2.65
2018-07-15T12:17:06.214Z,1.80
2018-07-15T12:19:35.049Z,1.87
2018-07-15T12:22:03.742Z,2.10
2018-07-15T12:24:32.425Z,2.08
2018-07-15T12:27:01.117Z,2.25
2018-07-15T12:29:29.805Z,1.90
2018-07-15T12:31:58.528Z,2.15
2018-07-15T12:34:27.204Z,2.87
2018-07-15T12:36:55.964Z,2.70
2018-07-15T12:39:24.702Z,1.80
2018-07-15T12:41:53.384Z,2.35
2018-07-15T12:44:22.182Z,1.93
2018-07-15T12:46:51.294Z,2.27
2018-07-15T12:49:20.188Z,2.07
2018-07-15T12:51:48.981Z,2.57
2018-07-15T12:54:17.764Z,3.37
2018-07-15T12:56:46.679Z,2.20
2018-07-15T12:59:15.854Z,2.60
2018-07-15T13:01:44.711Z,3.03
2018-07-15T13:04:13.442Z,2.50
2018-07-15T13:06:42.582Z,2.20
2018-07-15T13:09:11.827Z,2.80
2018-07-15T13:11:41.165Z,2.93
2018-07-15T13:14:10.334Z,2.67
2018-07-15T13:16:39.569Z,1.93
2018-07-15T13:19:08.389Z,2.40
2018-07-15T13:21:37.178Z,3.23
2018-07-15T13:24:05.952Z,2.20
2018-07-15T13:26:34.682Z,2.50
2018-07-15T13:29:03.479Z,2.70
2018-07-15T13:31:32.334Z,3.30
2018-07-15T13:34:01.159Z,2.70
2018-07-15T13:36:30.033Z,2.43
2018-07-15T13:38:58.835Z,2.90
2018-07-15T13:41:27.641Z,2.30
2018-07-15T13:43:56.896Z,2.87
2018-07-15T13:46:25.621Z,3.10
2018-07-15T13:48:54.435Z,2.73
2018-07-15T13:51:23.296Z,2.60
2018-07-15T13:53:52.116Z,3.17
2018-07-15T13:56:20.894Z,3.73
2018-07-15T13:58:49.843Z,3.33
2018-07-15T14:01:18.579Z,3.10
2018-07-15T14:03:47.319Z,2.70
2018-07-15T14:06:16.161Z,2.83
2018-07-15T14:08:44.934Z,3.00
2018-07-15T14:11:13.744Z,4.70
2018-07-15T14:13:42.538Z,2.27
2018-07-15T14:16:11.282Z,2.70
2018-07-15T14:18:40.091Z,2.57
2018-07-15T14:21:08.863Z,3.50
2018-07-15T14:23:37.600Z,3.57
2018-07-15T14:26:06.555Z,4.00
2018-07-15T14:28:35.343Z,3.00
2018-07-15T14:31:04.200Z,4.43
2018-07-15T14:33:32.978Z,2.80
2018-07-15T14:36:01.879Z,2.97
2018-07-15T14:38:30.666Z,2.73
2018-07-15T14:40:59.866Z,2.50
2018-07-15T14:43:28.625Z,4.20
2018-07-15T14:45:57.519Z,2.90
2018-07-15T14:48:26.414Z,2.87
2018-07-15T14:50:55.758Z,2.73
2018-07-15T14:53:24.954Z,2.77
2018-07-15T14:55:54.156Z,2.90
2018-07-15T14:58:23.331Z,3.43
2018-07-15T15:00:52.627Z,2.70
2018-07-15T15:03:21.839Z,4.50
2018-07-15T15:05:50.585Z,3.10
2018-07-15T15:08:19.404Z,2.97
2018-07-15T15:10:48.259Z,2.27
2018-07-15T15:13:17.224Z,2.80
2018-07-15T15:15:46.105Z,2.90
2018-07-15T15:18:14.983Z,2.50
2018-07-15T15:20:43.965Z,3.20
2018-07-15T15:23:13.040Z,2.40
2018-07-15T15:25:42.361Z,3.70
2018-07-15T15:28:11.751Z,2.80
2018-07-15T15:30:41.026Z,3.40
2018-07-15T15:33:10.194Z,3.10
2018-07-15T15:35:39.248Z,7.00
2018-07-15T15:38:08.513Z,2.70
2018-07-15T15:40:39.291Z,3.17
2018-07-15T15:43:09.225Z,4.07
2018-07-15T15:45:38.358Z,3.30
2018-07-15T15:48:07.818Z,3.10
2018-07-15T15:50:36.970Z,3.53
2018-07-15T15:53:06.199Z,4.07
2018-07-15T15:55:35.413Z,3.60
2018-07-15T15:58:04.644Z,3.93
2018-07-15T16:00:33.869Z,3.57
2018-07-15T16:03:03.087Z,4.70
2018-07-15T16:05:32.337Z,5.17
2018-07-15T16:08:01.588Z,5.30
2018-07-15T16:10:31.635Z,5.13
2018-07-15T16:13:01.859Z,3.60
2018-07-15T16:15:31.222Z,4.50
2018-07-15T16:18:00.942Z,4.20
2018-07-15T16:20:30.162Z,3.83
2018-07-15T16:22:59.933Z,4.17
2018-07-15T16:25:31.035Z,5.50
2018-07-15T16:28:01.714Z,4.87
2018-07-15T16:30:32.652Z,4.13
2018-07-15T16:33:01.854Z,3.47
2018-07-15T16:35:30.853Z,4.30
2018-07-15T16:38:00.159Z,4.67
2018-07-15T16:40:29.254Z,7.50
2018-07-15T16:43:00.419Z,4.13
2018-07-15T16:45:32.650Z,4.50
2018-07-15T16:48:03.590Z,4.73
2018-07-15T16:50:34.562Z,5.40
2018-07-15T16:53:04.796Z,9.60
2018-07-15T16:55:34.110Z,5.73
2018-07-15T16:58:03.364Z,6.90
2018-07-15T17:00:32.556Z,6.10
2018-07-15T17:03:01.793Z,7.10
2018-07-15T17:05:30.941Z,15.80
2018-07-15T17:08:00.247Z,4.73
2018-07-15T17:10:29.355Z,6.17
2018-07-15T17:12:58.597Z,5.03
2018-07-15T17:15:27.941Z,4.70
2018-07-15T17:17:57.155Z,6.47
2018-07-15T17:20:26.394Z,6.13
2018-07-15T17:22:55.414Z,7.47
2018-07-15T17:25:24.593Z,6.90
2018-07-15T17:27:53.392Z,5.63
2018-07-15T17:30:22.718Z,4.70
2018-07-15T17:32:52.523Z,7.17
2018-07-15T17:35:21.698Z,4.90
2018-07-15T17:37:50.826Z,5.43
2018-07-15T17:40:20.101Z,4.80
2018-07-15T17:42:49.444Z,5.10
2018-07-15T17:45:18.909Z,5.43
2018-07-15T17:47:48.134Z,5.67
2018-07-15T17:50:17.605Z,6.80
2018-07-15T17:52:47.007Z,6.73
2018-07-15T17:55:16.217Z,5.50
2018-07-15T17:57:45.405Z,6.60
2018-07-15T18:00:14.545Z,5.70
2018-07-15T18:02:43.839Z,5.97
2018-07-15T18:05:12.809Z,5.80
2018-07-15T18:07:42.046Z,5.50
2018-07-15T18:10:11.189Z,5.00
2018-07-15T18:12:40.225Z,6.67
2018-07-15T18:15:09.417Z,5.43
2018-07-15T18:17:38.573Z,5.60
2018-07-15T18:20:07.751Z,6.53
2018-07-15T18:22:37.004Z,6.97
2018-07-15T18:25:06.238Z,7.37
2018-07-15T18:27:35.372Z,6.60
2018-07-15T18:30:04.448Z,8.10
2018-07-15T18:32:33.759Z,7.13
2018-07-15T18:35:03.134Z,6.40
2018-07-15T18:37:32.551Z,6.07
2018-07-15T18:40:01.788Z,8.17
2018-07-15T18:42:31.074Z,7.27
2018-07-15T18:45:00.384Z,7.57
2018-07-15T18:47:29.384Z,7.33
2018-07-15T18:49:58.674Z,5.90
2018-07-15T18:52:27.896Z,6.47
2018-07-15T18:54:57.028Z,6.33
2018-07-15T18:57:26.257Z,6.50
2018-07-15T18:59:55.279Z,7.60
2018-07-15T19:02:24.452Z,6.00
2018-07-15T19:04:53.657Z,6.50
2018-07-15T19:07:22.901Z,7.03
2018-07-15T19:09:52.103Z,6.20
2018-07-15T19:12:21.254Z,7.30
2018-07-15T19:14:50.437Z,6.07
2018-07-15T19:17:19.791Z,7.13
2018-07-15T19:19:49.069Z,6.53
2018-07-15T19:22:18.263Z,5.40
2018-07-15T19:24:48.981Z,7.10
2018-07-15T19:27:18.179Z,7.03
2018-07-15T19:29:47.314Z,6.77
2018-07-15T19:32:22.410Z,5.30
2018-07-15T19:34:55.747Z,7.03
2018-07-15T19:37:29.999Z,6.53
2018-07-15T19:39:59.533Z,6.43
2018-07-15T19:42:28.681Z,7.80
2018-07-15T19:44:57.733Z,7.40
2018-07-15T19:47:26.972Z,8.47
2018-07-15T19:49:56.162Z,6.00
2018-07-15T19:52:25.312Z,7.37
2018-07-15T19:54:54.637Z,8.00
2018-07-15T19:57:23.922Z,7.80
2018-07-15T19:59:53.158Z,7.87
2018-07-15T20:02:22.315Z,9.00
2018-07-15T20:04:51.544Z,7.90
2018-07-15T20:07:20.717Z,7.00
2018-07-15T20:09:49.913Z,7.43
2018-07-15T20:12:25.142Z,6.90
2018-07-15T20:14:59.775Z,7.33
2018-07-15T20:17:34.730Z,7.03
2018-07-15T20:20:08.505Z,7.53
2018-07-15T20:22:43.503Z,8.10
2018-07-15T20:25:16.936Z,7.60
2018-07-15T20:27:51.073Z,7.50
2018-07-15T20:30:25.638Z,7.13
2018-07-15T20:33:00.931Z,6.63
2018-07-15T20:35:35.433Z,8.10
2018-07-15T20:38:08.759Z,7.17
2018-07-15T20:40:37.860Z,8.73
2018-07-15T20:43:06.594Z,7.90
2018-07-15T20:45:35.329Z,8.60
2018-07-15T20:48:04.202Z,7.90
2018-07-15T20:50:32.950Z,8.97
2018-07-15T20:53:01.823Z,8.27
2018-07-15T20:55:30.537Z,7.37
2018-07-15T20:57:59.250Z,7.70
2018-07-15T21:00:27.949Z,8.10
2018-07-15T21:02:56.677Z,8.47
2018-07-15T21:05:25.386Z,7.33
2018-07-15T21:07:54.333Z,8.70
2018-07-15T21:10:23.587Z,9.03
2018-07-15T21:12:52.710Z,7.60
2018-07-15T21:15:21.947Z,8.33
2018-07-15T21:17:51.065Z,8.00
2018-07-15T21:20:19.976Z,8.30
2018-07-15T21:22:48.978Z,9.00
2018-07-15T21:25:17.942Z,8.40
2018-07-15T21:27:46.863Z,7.00
2018-07-15T21:30:15.902Z,8.53
2018-07-15T21:32:45.057Z,8.90
2018-07-15T21:35:13.982Z,9.57
2018-07-15T21:37:42.922Z,8.20
2018-07-15T21:40:12.154Z,12.27
2018-07-15T21:42:41.445Z,10.30
2018-07-15T21:45:10.738Z,7.70
2018-07-15T21:47:40.069Z,8.30
2018-07-15T21:50:09.271Z,8.90
2018-07-15T21:52:38.478Z,8.93
2018-07-15T21:55:07.733Z,8.97
2018-07-15T21:57:36.980Z,8.43
2018-07-15T22:00:07.059Z,9.13
2018-07-15T22:02:36.178Z,7.90
2018-07-15T22:05:05.387Z,7.73
2018-07-15T22:07:45.283Z,8.40
2018-07-15T22:10:24.406Z,7.77
2018-07-15T22:12:53.525Z,9.10
2018-07-15T22:15:22.217Z,7.93
2018-07-15T22:17:50.935Z,6.83
2018-07-15T22:20:19.641Z,9.40
2018-07-15T22:22:48.414Z,8.93
2018-07-15T22:25:17.114Z,8.83
2018-07-15T22:27:45.841Z,7.70
2018-07-15T22:30:14.561Z,9.67
2018-07-15T22:32:43.761Z,8.53
2018-07-15T22:35:12.488Z,8.77
2018-07-15T22:37:41.246Z,8.07
2018-07-15T22:40:09.937Z,8.33
2018-07-15T22:42:38.656Z,8.10
2018-07-15T22:45:07.776Z,9.83
2018-07-15T22:47:36.496Z,8.30
2018-07-15T22:50:05.229Z,8.57
2018-07-15T22:52:34.042Z,8.80
2018-07-15T22:55:02.738Z,9.50
2018-07-15T22:57:31.470Z,9.97
2018-07-15T23:00:00.178Z,8.27
2018-07-15T23:02:28.891Z,9.80
2018-07-15T23:05:36.110Z,8.03
2018-07-15T23:08:05.691Z,9.17
2018-07-15T23:10:34.887Z,9.97
2018-07-15T23:13:05.229Z,9.70
2018-07-15T23:15:34.882Z,9.93
2018-07-15T23:18:04.050Z,9.30
2018-07-15T23:20:33.945Z,9.90
2018-07-15T23:23:04.161Z,10.53
2018-07-15T23:25:33.674Z,10.03
2018-07-15T23:28:03.265Z,10.60
2018-07-15T23:30:33.144Z,11.57
2018-07-15T23:33:02.673Z,9.60
2018-07-15T23:35:32.334Z,9.47
2018-07-15T23:38:01.447Z,9.10
2018-07-15T23:40:30.592Z,8.33
2018-07-15T23:43:00.237Z,8.90
2018-07-15T23:45:30.186Z,10.17
2018-07-15T23:47:59.314Z,11.13
2018-07-15T23:50:28.362Z,10.33
2018-07-15T23:52:57.525Z,10.10
2018-07-15T23:55:26.821Z,12.13
2018-07-15T23:57:56.085Z,8.70
